Time;durP1;ratioP1;P1;durP2;ratioP2;P2;SDS_P1;SDS_P2;PMS_P1;PMS_P2;Temp;Humidity;BMP_temperature;BMP_pressure;BME280_temperature;BME280_humidity;BME280_pressure;Samples;Min_cycle;Max_cycle;Signal;HPM_P1;HPM_P2
2021/06/11 00:01:03;;;;;;;14.25;6.67;;;;;;;14.60;79.33;98945.30;1748242;81;20986;-81
2021/06/11 00:03:29;;;;;;;16.25;6.00;;;;;;;14.56;79.60;98951.55;1748236;81;21044;-81
2021/06/11 00:05:56;;;;;;;12.68;5.45;;;;;;;14.50;80.35;98954.84;1757238;81;21637;-81
2021/06/11 00:08:22;;;;;;;13.15;5.35;;;;;;;14.45;77.47;98949.41;1750004;81;21009;-81
2021/06/11 00:10:49;;;;;;;10.78;5.15;;;;;;;14.36;77.91;98946.72;1718779;83;21328;-81
2021/06/11 00:13:15;;;;;;;10.88;5.92;;;;;;;14.29;79.01;98938.30;1691721;84;21142;-81
2021/06/11 00:15:42;;;;;;;10.82;5.42;;;;;;;14.26;78.72;98938.88;1700276;83;21432;-82
2021/06/11 00:18:09;;;;;;;8.28;5.17;;;;;;;14.23;79.97;98942.48;1695284;83;21094;-81
2021/06/11 00:20:36;;;;;;;7.22;4.87;;;;;;;14.22;78.24;98950.38;1688745;83;21019;-81
2021/06/11 00:23:02;;;;;;;7.95;4.83;;;;;;;14.20;79.17;98940.45;1685901;83;21036;-80
2021/06/11 00:25:29;;;;;;;8.45;5.20;;;;;;;14.21;79.49;98939.08;1660580;85;21016;-80
2021/06/11 00:27:59;;;;;;;10.70;5.33;;;;;;;14.18;79.92;98936.58;1683676;83;21538;-80
2021/06/11 00:30:24;;;;;;;9.25;5.15;;;;;;;14.16;79.86;98935.80;1695333;83;21042;-80
2021/06/11 00:32:51;;;;;;;8.23;4.60;;;;;;;14.16;80.55;98935.80;1704225;82;21015;-80
2021/06/11 00:35:18;;;;;;;12.28;4.90;;;;;;;14.15;79.31;98938.50;1709189;82;21053;-80
2021/06/11 00:37:44;;;;;;;11.93;4.67;;;;;;;14.10;79.60;98942.13;1699116;83;21082;-81
2021/06/11 00:40:12;;;;;;;8.23;5.15;;;;;;;14.11;79.18;98936.00;1702932;83;20995;-81
2021/06/11 00:42:39;;;;;;;13.53;5.92;;;;;;;14.11;79.10;98933.39;1692339;83;21567;-80
2021/06/11 00:45:09;;;;;;;8.40;4.72;;;;;;;14.12;79.26;98936.84;1687313;83;21308;-80
2021/06/11 00:47:36;;;;;;;7.00;4.85;;;;;;;14.10;78.99;98945.21;1695518;83;21030;-81
2021/06/11 00:50:05;;;;;;;10.25;5.03;;;;;;;14.06;79.10;98945.79;1719529;83;21087;-80
2021/06/11 00:52:32;;;;;;;6.30;4.40;;;;;;;14.04;79.66;98941.08;1700139;83;21038;-81
2021/06/11 00:55:00;;;;;;;8.65;5.15;;;;;;;14.03;79.46;98935.48;1662583;86;21121;-82
2021/06/11 00:57:27;;;;;;;9.33;4.85;;;;;;;14.04;79.25;98937.16;1690267;83;21122;-81
2021/06/11 00:59:57;;;;;;;10.63;5.45;;;;;;;14.04;80.10;98945.00;1723752;83;21022;-82
2021/06/11 01:02:23;;;;;;;11.10;5.35;;;;;;;14.04;79.22;98941.55;1716869;83;20963;-81
2021/06/11 01:04:51;;;;;;;10.35;6.20;;;;;;;14.03;78.49;98943.32;1733488;83;21029;-83
2021/06/11 01:07:20;;;;;;;8.63;5.33;;;;;;;14.00;79.32;98946.05;1718215;83;21056;-80
2021/06/11 01:09:48;;;;;;;10.50;5.95;;;;;;;13.99;80.33;98939.14;1702772;84;21093;-81
2021/06/11 01:12:15;;;;;;;9.28;5.33;;;;;;;13.98;80.07;98945.73;1705306;83;21104;-80
2021/06/11 01:14:43;;;;;;;11.80;6.45;;;;;;;13.96;81.18;98939.72;1714775;83;21584;-82
2021/06/11 01:17:12;;;;;;;8.78;5.22;;;;;;;13.94;80.39;98933.23;1699873;83;21019;-82
2021/06/11 01:19:47;;;;;;;9.40;5.40;;;;;;;13.91;80.22;98936.00;1712895;83;21069;-81
2021/06/11 01:22:25;;;;;;;11.22;5.40;;;;;;;13.87;80.27;98931.81;1705045;83;21053;-80
2021/06/11 01:25:00;;;;;;;14.63;5.67;;;;;;;13.81;79.58;98935.52;1712260;83;21077;-80
2021/06/11 01:27:29;;;;;;;8.53;5.70;;;;;;;13.78;80.47;98934.78;1687876;83;21013;-81
2021/06/11 01:30:03;;;;;;;14.40;6.20;;;;;;;13.70;80.07;98939.85;1689521;83;21613;-81
2021/06/11 01:32:25;;;;;;;11.33;5.40;;;;;;;13.65;80.07;98927.45;1687326;83;21060;-80
2021/06/11 01:34:53;;;;;;;15.55;5.20;;;;;;;13.61;79.33;98928.48;1690035;84;21014;-81
2021/06/11 01:37:24;;;;;;;16.57;5.65;;;;;;;13.56;81.21;98927.81;1729107;81;21137;-82
2021/06/11 01:39:55;;;;;;;9.55;5.60;;;;;;;13.52;81.61;98923.63;1744514;82;21645;-80
2021/06/11 01:42:23;;;;;;;11.28;5.15;;;;;;;13.47;80.45;98927.73;1738859;81;21002;-82
2021/06/11 01:44:53;;;;;;;8.18;5.25;;;;;;;13.45;80.09;98933.91;1763452;81;21043;-83
2021/06/11 01:47:21;;;;;;;10.00;5.53;;;;;;;13.40;80.33;98932.79;1767624;81;21526;-81
2021/06/11 01:49:50;;;;;;;11.48;5.45;;;;;;;13.38;79.67;98937.69;1763376;81;20999;-80
2021/06/11 01:52:18;;;;;;;9.85;5.40;;;;;;;13.34;80.21;98938.25;1757125;81;21023;-80
2021/06/11 01:54:46;;;;;;;10.43;5.08;;;;;;;13.33;80.95;98929.58;1743046;82;21011;-81
2021/06/11 01:57:14;;;;;;;8.40;5.03;;;;;;;13.31;80.58;98930.09;1758124;81;21494;-81
2021/06/11 01:59:43;;;;;;;9.75;5.37;;;;;;;13.31;80.53;98928.78;1747322;82;21081;-80
2021/06/11 02:02:09;;;;;;;11.43;5.72;;;;;;;13.28;81.32;98931.47;1710335;82;21063;-81
2021/06/11 02:04:37;;;;;;;9.70;4.85;;;;;;;13.22;83.83;98929.56;1742878;82;22263;-82
2021/06/11 02:07:08;;;;;;;8.70;5.20;;;;;;;13.22;82.56;98926.48;1722086;82;21046;-81
2021/06/11 02:09:35;;;;;;;10.18;5.00;;;;;;;13.22;81.54;98925.64;1743176;82;21886;-82
2021/06/11 02:12:03;;;;;;;12.82;5.62;;;;;;;13.20;83.79;98927.00;1741087;82;21059;-81
2021/06/11 02:14:29;;;;;;;10.63;4.60;;;;;;;13.21;82.57;98933.06;1742029;82;21010;-82
2021/06/11 02:16:58;;;;;;;8.78;5.50;;;;;;;13.19;81.38;98930.97;1748605;81;21047;-82
2021/06/11 02:19:26;;;;;;;10.28;5.37;;;;;;;13.18;81.01;98931.90;1723855;81;20991;-82
2021/06/11 02:21:55;;;;;;;13.60;5.25;;;;;;;13.16;81.76;98925.42;1709156;82;21538;-81
2021/06/11 02:24:22;;;;;;;9.08;5.50;;;;;;;13.14;81.36;98928.09;1744809;82;21014;-81
2021/06/11 02:26:50;;;;;;;10.20;5.45;;;;;;;13.14;82.70;98928.55;1728246;82;21106;-81
2021/06/11 02:29:18;;;;;;;11.75;5.35;;;;;;;13.13;82.96;98919.03;1762875;81;20964;-81
2021/06/11 02:31:45;;;;;;;13.55;5.55;;;;;;;13.13;81.97;98925.56;1734543;82;21065;-81
2021/06/11 02:34:13;;;;;;;14.20;5.60;;;;;;;13.10;81.83;98916.53;1743443;82;21026;-82
2021/06/11 02:36:39;;;;;;;11.40;5.58;;;;;;;13.12;83.23;98924.69;1744323;82;21053;-82
2021/06/11 02:39:06;;;;;;;9.10;5.17;;;;;;;13.11;82.34;98923.43;1736677;82;21126;-80
2021/06/11 02:41:46;;;;;;;17.25;5.17;;;;;;;13.10;82.83;98928.27;1747551;81;21588;-81
2021/06/11 02:44:13;;;;;;;10.48;5.60;;;;;;;13.07;83.44;98928.38;1738868;82;21046;-80
2021/06/11 02:46:48;;;;;;;8.33;4.87;;;;;;;13.06;84.45;98918.39;1697406;84;21039;-80
2021/06/11 02:49:30;;;;;;;17.02;5.97;;;;;;;13.07;85.80;98924.03;1702159;83;21038;-81
2021/06/11 02:52:00;;;;;;;10.72;5.53;;;;;;;13.07;83.96;98930.98;1692239;83;21039;-81
2021/06/11 02:54:35;;;;;;;10.43;5.47;;;;;;;13.04;82.94;98928.05;1696717;83;21011;-81
2021/06/11 02:57:07;;;;;;;10.35;4.85;;;;;;;13.03;83.58;98931.58;1700721;83;21023;-82
2021/06/11 02:59:46;;;;;;;9.43;5.55;;;;;;;13.03;85.18;98932.88;1702471;83;21046;-81
2021/06/11 03:02:18;;;;;;;11.53;5.28;;;;;;;13.05;85.45;98934.11;1688180;83;21078;-81
2021/06/11 03:04:46;;;;;;;10.40;5.42;;;;;;;13.06;84.12;98937.12;1660717;86;21085;-82
2021/06/11 03:07:27;;;;;;;11.30;5.22;;;;;;;13.01;85.68;98936.44;1687553;84;21094;-81
2021/06/11 03:09:57;;;;;;;14.00;5.47;;;;;;;13.00;85.79;98930.84;1675307;85;21089;-80
2021/06/11 03:12:26;;;;;;;11.08;5.42;;;;;;;12.99;85.04;98933.03;1691099;84;21022;-81
2021/06/11 03:14:54;;;;;;;9.78;5.50;;;;;;;13.00;85.73;98936.05;1696748;84;21058;-80
2021/06/11 03:17:31;;;;;;;10.35;5.80;;;;;;;13.03;85.65;98930.70;1682929;84;21037;-80
2021/06/11 03:20:03;;;;;;;14.35;5.58;;;;;;;13.05;84.76;98927.15;1689435;84;21102;-80
2021/06/11 03:22:36;;;;;;;11.50;5.75;;;;;;;13.07;86.90;98932.28;1684297;83;21673;-81
2021/06/11 03:25:32;;;;;;;11.12;5.37;;;;;;;13.12;84.53;98932.98;1710679;83;21037;-81
2021/06/11 03:28:08;;;;;;;19.77;5.00;;;;;;;13.15;84.15;98935.48;1695303;83;21550;-81
2021/06/11 03:30:36;;;;;;;12.55;4.97;;;;;;;13.12;84.64;98941.65;1697237;83;21029;-80
2021/06/11 03:33:12;;;;;;;31.25;6.62;;;;;;;13.17;84.84;98948.45;1695886;83;21035;-81
2021/06/11 03:35:43;;;;;;;9.88;5.60;;;;;;;13.08;87.08;98947.05;1708593;83;21026;-81
2021/06/11 03:38:15;;;;;;;13.90;5.92;;;;;;;13.14;85.18;98949.43;1688061;83;21609;-81
2021/06/11 03:40:43;;;;;;;11.68;5.45;;;;;;;13.17;85.24;98945.84;1714176;83;21066;-80
2021/06/11 03:43:11;;;;;;;9.93;5.47;;;;;;;13.20;85.39;98954.41;1705437;83;21823;-81
2021/06/11 03:45:41;;;;;;;9.70;5.45;;;;;;;13.23;84.43;98946.91;1719473;83;21042;-80
2021/06/11 03:48:10;;;;;;;15.38;5.67;;;;;;;13.28;85.45;98964.10;1691868;84;21030;-81
2021/06/11 03:50:40;;;;;;;12.93;5.78;;;;;;;13.29;85.95;98961.94;1705468;83;21102;-81
2021/06/11 03:53:07;;;;;;;12.33;5.67;;;;;;;13.38;84.58;98965.10;1701606;83;21026;-81
2021/06/11 03:55:40;;;;;;;8.10;5.83;;;;;;;13.37;86.00;98968.61;1702374;83;21098;-79
2021/06/11 03:58:27;;;;;;;11.68;5.47;;;;;;;13.40;85.04;98978.95;1698324;83;21046;-81
2021/06/11 04:00:57;;;;;;;9.05;5.87;;;;;;;13.41;85.78;98976.28;1676633;85;21031;-81
2021/06/11 04:03:25;;;;;;;9.28;5.00;;;;;;;13.50;84.20;98984.20;1683411;85;21015;-81
2021/06/11 04:06:01;;;;;;;10.65;5.08;;;;;;;13.54;85.07;98985.78;1669121;84;21606;-80
2021/06/11 04:08:33;;;;;;;8.13;4.85;;;;;;;13.62;83.62;98979.80;1678545;84;21059;-81
2021/06/11 04:11:02;;;;;;;8.55;4.85;;;;;;;13.65;84.70;98982.31;1669634;85;20995;-81
2021/06/11 04:13:43;;;;;;;8.08;4.97;;;;;;;13.72;84.97;98983.75;1680320;85;21134;-81
2021/06/11 04:16:20;;;;;;;7.53;4.60;;;;;;;13.78;84.47;98980.52;1655262;85;21031;-80
2021/06/11 04:18:47;;;;;;;13.10;5.92;;;;;;;13.85;83.54;98984.59;1693646;84;21039;-81
2021/06/11 04:21:22;;;;;;;12.20;5.30;;;;;;;13.88;83.88;98978.76;1692984;84;21083;-82
2021/06/11 04:23:53;;;;;;;8.60;4.53;;;;;;;13.95;83.73;98988.53;1665279;86;21163;-80
2021/06/11 04:26:25;;;;;;;8.75;5.03;;;;;;;13.98;82.96;98988.39;1669568;85;21030;-81
2021/06/11 04:28:55;;;;;;;8.55;4.87;;;;;;;14.01;82.67;98993.50;1675013;85;21035;-81
2021/06/11 04:31:21;;;;;;;12.93;4.85;;;;;;;14.02;82.97;98998.27;1671554;85;21070;-82
2021/06/11 04:33:48;;;;;;;11.57;5.65;;;;;;;14.06;82.83;98995.45;1679309;85;21019;-81
2021/06/11 04:36:15;;;;;;;8.50;5.35;;;;;;;14.16;82.66;98986.78;1680794;84;21067;-83
2021/06/11 04:39:08;;;;;;;8.45;5.17;;;;;;;14.26;82.45;98989.87;1684683;84;21972;-82
2021/06/11 04:41:36;;;;;;;11.53;5.63;;;;;;;14.35;82.31;98984.27;1671216;85;21361;-82
2021/06/11 04:44:05;;;;;;;17.15;10.18;;;;;;;14.48;81.79;98988.50;1676500;85;21956;-80
2021/06/11 04:46:33;;;;;;;26.12;12.18;;;;;;;14.57;80.99;98980.30;1701656;84;21043;-82
2021/06/11 04:49:00;;;;;;;28.32;12.58;;;;;;;14.66;80.99;98985.58;1680138;85;20995;-81
2021/06/11 04:51:28;;;;;;;15.05;7.33;;;;;;;14.77;80.31;98985.13;1714722;83;21086;-81
2021/06/11 04:53:54;;;;;;;21.12;10.15;;;;;;;14.83;80.93;98988.31;1696366;83;21014;-80
2021/06/11 04:56:21;;;;;;;15.35;7.53;;;;;;;14.92;80.70;98988.35;1729097;82;21034;-80
2021/06/11 04:58:49;;;;;;;13.30;6.75;;;;;;;15.01;80.73;98992.34;1702156;83;21054;-80
2021/06/11 05:01:16;;;;;;;12.73;5.72;;;;;;;15.08;79.87;98989.39;1744979;82;21019;-81
2021/06/11 05:03:43;;;;;;;9.98;5.70;;;;;;;15.13;79.48;98990.48;1739475;81;21086;-80
2021/06/11 05:06:10;;;;;;;9.73;6.20;;;;;;;15.19;79.07;98997.21;1739632;82;21057;-81
2021/06/11 05:08:36;;;;;;;9.65;5.97;;;;;;;15.28;78.84;98998.95;1728682;82;21046;-80
2021/06/11 05:11:04;;;;;;;11.05;5.45;;;;;;;15.35;79.12;98998.20;1746398;81;21091;-81
2021/06/11 05:13:31;;;;;;;9.00;5.58;;;;;;;15.40;79.21;98997.98;1746838;81;21003;-80
2021/06/11 05:15:58;;;;;;;14.73;5.58;;;;;;;15.46;78.96;99002.96;1745775;82;21042;-82
2021/06/11 05:18:29;;;;;;;12.95;5.58;;;;;;;15.54;78.94;99006.50;1739273;82;21034;-82
2021/06/11 05:20:58;;;;;;;14.55;6.35;;;;;;;15.64;78.87;98997.31;1741393;81;21014;-83
2021/06/11 05:23:25;;;;;;;15.28;6.17;;;;;;;15.77;78.94;99002.84;1744408;81;20939;-81
2021/06/11 05:25:53;;;;;;;12.68;5.67;;;;;;;15.94;78.76;99003.36;1771456;81;21011;-81
2021/06/11 05:28:22;;;;;;;11.55;6.50;;;;;;;16.07;78.54;99004.44;1740887;81;21026;-82
2021/06/11 05:30:50;;;;;;;13.45;7.10;;;;;;;16.20;78.34;99010.78;1768118;81;21133;-82
2021/06/11 05:33:17;;;;;;;15.45;7.08;;;;;;;16.35;77.97;99020.96;1702567;83;21066;-82
2021/06/11 05:35:44;;;;;;;13.60;6.92;;;;;;;16.41;77.58;99010.19;1743427;82;21050;-81
2021/06/11 05:38:15;;;;;;;11.75;7.20;;;;;;;16.42;77.11;99011.03;1703510;82;21061;-82
2021/06/11 05:40:42;;;;;;;12.25;7.15;;;;;;;16.45;76.71;99018.29;1743215;81;21899;-82
2021/06/11 05:43:09;;;;;;;13.95;6.80;;;;;;;16.51;76.55;99018.42;1752564;81;21101;-79
2021/06/11 05:45:36;;;;;;;12.33;6.67;;;;;;;16.63;76.46;99020.88;1749017;81;21034;-79
2021/06/11 05:48:04;;;;;;;15.25;7.33;;;;;;;16.71;75.92;99020.02;1750654;81;21052;-81
2021/06/11 05:50:31;;;;;;;21.73;7.97;;;;;;;16.75;75.26;99015.03;1745962;81;21015;-80
2021/06/11 05:52:58;;;;;;;16.20;7.55;;;;;;;16.79;75.40;99015.69;1742347;81;21318;-79
2021/06/11 05:55:27;;;;;;;11.85;6.62;;;;;;;16.89;75.31;99018.25;1743519;82;21075;-80
2021/06/11 05:57:54;;;;;;;10.00;5.70;;;;;;;16.98;74.74;99011.22;1739843;81;21014;-80
2021/06/11 06:00:22;;;;;;;10.25;5.92;;;;;;;17.03;74.25;99014.91;1754349;81;21027;-79
2021/06/11 06:02:49;;;;;;;11.18;6.03;;;;;;;17.07;73.51;99009.91;1746680;81;21058;-83
2021/06/11 06:05:16;;;;;;;12.95;5.58;;;;;;;17.06;73.47;99008.19;1736939;81;21139;-80
2021/06/11 06:07:43;;;;;;;12.35;5.42;;;;;;;17.16;74.04;99009.39;1735397;81;20983;-82
2021/06/11 06:10:11;;;;;;;10.25;4.92;;;;;;;17.29;73.98;99006.97;1740978;81;21011;-86
2021/06/11 06:12:38;;;;;;;11.35;5.15;;;;;;;17.41;73.20;99014.66;1729425;82;21019;-89
2021/06/11 06:15:06;;;;;;;11.35;5.70;;;;;;;17.45;71.91;99014.39;1736294;81;21003;-74
2021/06/11 06:17:36;;;;;;;10.88;5.58;;;;;;;17.54;72.75;99012.19;1734367;81;22178;-81
2021/06/11 06:20:10;;;;;;;14.75;5.72;;;;;;;17.59;71.52;99016.74;1732921;81;20959;-79
2021/06/11 06:22:37;;;;;;;10.70;5.35;;;;;;;17.72;72.55;99008.53;1733511;81;21027;-78
2021/06/11 06:25:06;;;;;;;11.43;5.58;;;;;;;17.87;71.64;99002.93;1731378;81;21025;-77
2021/06/11 06:27:35;;;;;;;13.50;5.97;;;;;;;17.96;71.10;99000.23;1734001;81;21602;-78
2021/06/11 06:30:04;;;;;;;10.53;4.87;;;;;;;18.05;71.20;99003.19;1725712;81;21327;-78
2021/06/11 06:32:31;;;;;;;12.70;6.05;;;;;;;18.17;70.61;99004.75;1692426;83;21110;-80
2021/06/11 06:34:58;;;;;;;13.72;5.40;;;;;;;18.17;69.83;98995.06;1692728;83;21343;-77
2021/06/11 06:37:25;;;;;;;8.05;4.72;;;;;;;18.27;68.64;99003.27;1688672;83;21078;-77
2021/06/11 06:39:52;;;;;;;8.98;5.00;;;;;;;18.32;68.97;98998.57;1698680;83;21051;-78
2021/06/11 06:42:19;;;;;;;10.10;4.72;;;;;;;18.31;68.42;99002.16;1703853;83;21498;-77
2021/06/11 06:44:46;;;;;;;9.70;4.67;;;;;;;18.44;68.89;99002.27;1693532;83;22028;-77
2021/06/11 06:47:14;;;;;;;10.60;5.28;;;;;;;18.56;68.97;99003.33;1682989;84;21066;-80
2021/06/11 06:49:41;;;;;;;9.90;4.78;;;;;;;18.64;67.91;99013.80;1667326;84;21035;-79
2021/06/11 06:52:08;;;;;;;9.10;4.90;;;;;;;18.68;67.92;99014.00;1692847;83;21186;-79
2021/06/11 06:54:34;;;;;;;9.85;5.12;;;;;;;18.72;67.59;99006.77;1727352;81;21064;-79
2021/06/11 06:57:02;;;;;;;12.23;4.95;;;;;;;18.83;67.30;99006.14;1728787;81;21538;-80
2021/06/11 06:59:29;;;;;;;13.13;4.35;;;;;;;18.87;65.64;99007.17;1743377;81;21026;-78
2021/06/11 07:02:00;;;;;;;10.03;4.45;;;;;;;18.92;66.68;98998.14;1742809;81;21475;-80
2021/06/11 07:04:28;;;;;;;9.75;4.12;;;;;;;18.90;65.11;99004.84;1739946;82;21328;-80
2021/06/11 07:06:54;;;;;;;12.90;5.80;;;;;;;18.96;65.18;99004.47;1727264;81;21062;-81
2021/06/11 07:09:21;;;;;;;9.90;5.10;;;;;;;19.03;66.13;98994.38;1744352;81;21046;-78
2021/06/11 07:11:49;;;;;;;7.10;4.15;;;;;;;19.09;63.93;98997.95;1730059;81;21317;-77
2021/06/11 07:14:16;;;;;;;9.08;4.20;;;;;;;19.15;63.83;98987.03;1722434;81;21066;-78
2021/06/11 07:16:44;;;;;;;8.63;4.20;;;;;;;19.23;62.10;98993.16;1734499;81;21071;-78
2021/06/11 07:19:11;;;;;;;11.63;4.58;;;;;;;19.36;64.37;98989.27;1748332;79;21052;-78
2021/06/11 07:21:38;;;;;;;10.70;4.58;;;;;;;19.39;62.47;98997.83;1721516;81;21018;-77
2021/06/11 07:24:06;;;;;;;11.15;4.08;;;;;;;19.50;63.95;98994.53;1738802;81;21042;-78
2021/06/11 07:26:33;;;;;;;7.15;4.05;;;;;;;19.63;64.12;98988.83;1727564;81;21015;-78
2021/06/11 07:28:59;;;;;;;6.62;4.55;;;;;;;19.78;63.50;98983.56;1741881;81;21566;-78
2021/06/11 07:31:27;;;;;;;12.90;4.72;;;;;;;19.95;62.12;98994.33;1734754;81;21034;-78
2021/06/11 07:33:54;;;;;;;7.35;4.30;;;;;;;20.05;62.99;98992.33;1741369;81;20978;-77
2021/06/11 07:36:21;;;;;;;10.95;4.35;;;;;;;20.09;60.27;98989.47;1721480;81;21104;-77
2021/06/11 07:38:47;;;;;;;8.53;4.30;;;;;;;20.16;60.72;98990.77;1735908;81;21661;-76
2021/06/11 07:41:14;;;;;;;11.57;4.60;;;;;;;20.30;60.88;98981.45;1732111;81;21007;-80
2021/06/11 07:43:44;;;;;;;8.13;4.00;;;;;;;20.51;59.88;98980.94;1746163;81;21038;-77
2021/06/11 07:46:10;;;;;;;9.95;4.50;;;;;;;20.62;61.05;98978.45;1727167;81;21057;-78
2021/06/11 07:48:37;;;;;;;7.67;4.03;;;;;;;20.76;61.01;98976.19;1732127;81;22120;-78
2021/06/11 07:51:04;;;;;;;11.48;4.60;;;;;;;20.94;61.60;98975.38;1736808;81;21030;-79
2021/06/11 07:53:30;;;;;;;11.08;4.42;;;;;;;21.10;60.93;98977.31;1738648;81;20960;-80
2021/06/11 07:55:57;;;;;;;14.05;4.85;;;;;;;21.26;59.05;98976.59;1735312;82;21026;-80
2021/06/11 07:58:23;;;;;;;8.80;4.47;;;;;;;21.41;59.57;98971.19;1724939;81;21021;-78
2021/06/11 08:00:50;;;;;;;10.98;4.50;;;;;;;21.52;59.27;98976.56;1735758;81;21101;-81
2021/06/11 08:03:17;;;;;;;8.75;4.15;;;;;;;21.63;57.06;98974.48;1742278;81;20991;-79
2021/06/11 08:05:44;;;;;;;8.38;4.25;;;;;;;21.78;58.49;98977.79;1739819;81;20982;-83
2021/06/11 08:08:10;;;;;;;7.75;3.98;;;;;;;21.79;57.40;98968.91;1739834;81;21007;-79
2021/06/11 08:10:37;;;;;;;9.03;4.15;;;;;;;21.92;56.16;98973.64;1747936;81;20954;-79
2021/06/11 08:13:05;;;;;;;7.20;4.15;;;;;;;22.05;56.40;98974.92;1739392;81;21062;-79
2021/06/11 08:15:33;;;;;;;10.45;4.03;;;;;;;22.12;53.89;98969.52;1747479;81;21015;-79
2021/06/11 08:17:59;;;;;;;6.92;3.80;;;;;;;22.20;56.56;98961.00;1744389;81;21202;-78
2021/06/11 08:20:26;;;;;;;13.72;4.28;;;;;;;22.30;56.24;98963.34;1737782;81;22363;-80
2021/06/11 08:22:52;;;;;;;9.80;4.10;;;;;;;22.40;56.62;98960.39;1732179;81;21038;-81
2021/06/11 08:25:22;;;;;;;11.33;4.35;;;;;;;22.54;54.74;98958.47;1741222;81;21061;-79
2021/06/11 08:27:47;;;;;;;12.55;6.20;;;;;;;22.62;55.27;98956.06;1702449;83;21054;-78
2021/06/11 08:30:15;;;;;;;11.10;4.40;;;;;;;22.61;55.01;98951.25;1706415;82;21037;-79
2021/06/11 08:32:41;;;;;;;9.63;4.03;;;;;;;22.68;55.06;98950.32;1694407;84;21054;-78
2021/06/11 08:35:09;;;;;;;11.43;6.62;;;;;;;22.84;55.14;98942.86;1696950;83;21010;-78
2021/06/11 08:37:35;;;;;;;6.40;3.80;;;;;;;22.95;54.02;98943.33;1682311;83;21079;-77
2021/06/11 08:40:04;;;;;;;7.20;3.80;;;;;;;23.03;53.90;98938.29;1690512;83;21038;-80
2021/06/11 08:42:31;;;;;;;7.42;3.70;;;;;;;23.09;53.54;98942.76;1689364;83;21039;-79
2021/06/11 08:45:02;;;;;;;10.32;4.10;;;;;;;23.19;53.46;98936.59;1739083;82;21090;-78
2021/06/11 08:47:30;;;;;;;7.05;3.70;;;;;;;23.33;48.11;98939.95;1733535;81;21038;-78
2021/06/11 08:49:58;;;;;;;6.20;3.60;;;;;;;23.43;51.55;98935.59;1741186;81;21026;-80
2021/06/11 08:52:27;;;;;;;4.65;3.37;;;;;;;23.58;51.49;98937.50;1736271;81;21862;-80
2021/06/11 08:54:55;;;;;;;5.83;3.77;;;;;;;23.67;50.03;98930.58;1743765;81;21079;-83
2021/06/11 08:57:23;;;;;;;8.33;3.75;;;;;;;23.71;47.35;98930.20;1751836;81;21459;-84
2021/06/11 08:59:53;;;;;;;10.13;3.90;;;;;;;23.80;49.43;98923.34;1739708;81;21558;-82
2021/06/11 09:02:23;;;;;;;8.08;3.30;;;;;;;23.91;49.05;98919.28;1736157;80;21146;-83
2021/06/11 09:04:54;;;;;;;11.08;5.22;;;;;;;24.02;49.22;98916.59;1742781;81;21006;-84
2021/06/11 09:07:34;;;;;;;7.05;3.98;;;;;;;24.10;48.36;98912.45;1736150;81;21050;-80
2021/06/11 09:10:10;;;;;;;7.72;4.15;;;;;;;24.29;48.99;98909.94;1728907;81;21013;-81
2021/06/11 09:12:42;;;;;;;8.15;3.47;;;;;;;24.53;46.09;98911.48;1730360;81;21060;-85
2021/06/11 09:15:19;;;;;;;8.40;3.37;;;;;;;24.72;48.43;98905.44;1733243;81;21050;-80
2021/06/11 09:17:49;;;;;;;8.98;3.75;;;;;;;24.94;45.93;98913.70;1681505;83;21054;-81
2021/06/11 09:20:19;;;;;;;11.33;5.37;;;;;;;24.99;45.01;98903.52;1681180;84;21031;-85
2021/06/11 09:22:59;;;;;;;9.80;4.47;;;;;;;25.04;42.66;98903.10;1699122;83;21027;-84
2021/06/11 09:25:31;;;;;;;6.05;3.72;;;;;;;25.13;45.54;98904.47;1681525;84;21015;-86
2021/06/11 09:28:09;;;;;;;6.50;3.55;;;;;;;25.28;44.98;98904.11;1692807;83;21049;-85
2021/06/11 09:30:44;;;;;;;4.70;3.15;;;;;;;25.10;41.45;98900.73;1685885;84;21034;-80
2021/06/11 09:33:17;;;;;;;7.67;3.55;;;;;;;25.08;44.04;98901.85;1680318;84;21027;-80
2021/06/11 09:35:58;;;;;;;7.50;3.40;;;;;;;24.99;40.77;98895.54;1700151;83;20991;-78
2021/06/11 09:38:28;;;;;;;7.05;3.02;;;;;;;25.14;44.43;98886.18;1655024;85;21059;-79
2021/06/11 09:41:04;;;;;;;32.08;18.92;;;;;;;25.12;43.26;98889.47;1663593;85;21068;-80
2021/06/11 09:43:32;;;;;;;11.35;6.28;;;;;;;25.22;41.06;98885.53;1669243;85;21063;-81
2021/06/11 09:46:12;;;;;;;7.60;3.30;;;;;;;25.36;43.70;98885.13;1663313;84;21007;-79
2021/06/11 09:48:49;;;;;;;14.68;7.70;;;;;;;25.65;43.47;98876.84;1741096;81;21073;-84
2021/06/11 09:51:23;;;;;;;6.03;3.70;;;;;;;25.97;42.90;98865.42;1707269;82;21223;-84
2021/06/11 09:53:51;;;;;;;28.87;20.10;;;;;;;26.23;40.16;98873.31;1730476;81;21015;-85
2021/06/11 09:56:25;;;;;;;4.65;3.40;;;;;;;26.23;40.65;98874.14;1727118;81;21035;-86
2021/06/11 09:59:00;;;;;;;8.25;2.92;;;;;;;26.27;40.14;98868.88;1724035;82;21128;-89
2021/06/11 10:01:26;;;;;;;4.65;2.67;;;;;;;26.37;39.26;98867.02;1704002;83;21727;-88
2021/06/11 10:03:55;;;;;;;5.58;2.58;;;;;;;26.62;40.74;98863.88;1636794;85;21176;-86
2021/06/11 10:06:22;;;;;;;4.70;2.42;;;;;;;26.83;38.75;98862.32;1692046;84;21046;-84
2021/06/11 10:08:51;;;;;;;4.75;2.52;;;;;;;26.79;38.43;98865.27;1684536;84;21052;-85
2021/06/11 10:11:24;;;;;;;3.33;2.20;;;;;;;26.88;38.32;98857.36;1682293;85;21218;-87
2021/06/11 10:13:50;;;;;;;6.67;2.50;;;;;;;27.05;37.80;98855.23;1697119;83;21013;-87
2021/06/11 10:16:18;;;;;;;6.45;2.25;;;;;;;27.14;38.11;98853.52;1686492;84;21100;-87
2021/06/11 10:18:46;;;;;;;3.60;2.42;;;;;;;27.48;38.64;98856.90;1683444;84;21240;-85
2021/06/11 10:21:35;;;;;;;3.75;2.33;;;;;;;27.76;37.36;98854.97;1678734;84;20990;-89
2021/06/11 10:24:10;;;;;;;4.00;2.25;;;;;;;27.71;34.76;98863.93;1733996;79;21086;-82
2021/06/11 10:26:38;;;;;;;3.75;2.50;;;;;;;27.84;37.04;98857.70;1776935;80;21045;-87
2021/06/11 10:29:05;;;;;;;5.30;2.77;;;;;;;27.93;35.47;98859.97;1718004;82;21090;-84
2021/06/11 10:31:37;;;;;;;6.58;2.40;;;;;;;28.08;36.81;98857.08;1738818;81;21002;-85
2021/06/11 10:34:04;;;;;;;7.80;2.45;;;;;;;28.19;35.22;98869.33;1746020;80;21110;-83
2021/06/11 10:36:38;;;;;;;5.75;1.80;;;;;;;28.11;32.93;98865.27;1753034;80;21015;-81
2021/06/11 10:39:18;;;;;;;8.53;1.67;;;;;;;27.73;30.24;98858.77;1752949;80;21098;-82
2021/06/11 10:42:07;;;;;;;4.55;1.70;;;;;;;27.26;29.53;98867.02;1761305;81;21053;-84
2021/06/11 10:44:54;;;;;;;5.85;2.00;;;;;;;26.84;29.82;98875.98;1737073;80;21011;-83
2021/06/11 10:47:24;;;;;;;5.00;2.12;;;;;;;26.61;30.92;98855.55;1759997;80;20977;-85
2021/06/11 10:50:01;;;;;;;4.62;2.15;;;;;;;26.38;32.23;98867.84;1748179;80;21014;-83
2021/06/11 10:52:50;;;;;;;4.37;2.25;;;;;;;26.23;32.70;98859.98;1743359;80;21101;-83
2021/06/11 10:55:36;;;;;;;6.15;2.15;;;;;;;26.08;34.03;98860.41;1754542;80;21010;-82
2021/06/11 10:58:14;;;;;;;6.85;2.35;;;;;;;25.97;35.06;98857.44;1743722;80;21075;-83
2021/06/11 11:00:43;;;;;;;3.77;2.05;;;;;;;25.86;35.66;98865.53;1730902;80;22075;-82
2021/06/11 11:03:27;;;;;;;5.40;2.30;;;;;;;25.68;35.36;98871.23;1745540;80;21018;-83
2021/06/11 11:05:54;;;;;;;3.33;2.30;;;;;;;25.68;35.88;98864.07;1751643;80;21062;-81
2021/06/11 11:08:23;;;;;;;9.50;3.00;;;;;;;25.55;36.35;98857.71;1778354;79;21004;-82
2021/06/11 11:10:53;;;;;;;7.12;2.37;;;;;;;25.57;37.56;98852.25;1736056;81;20972;-83
2021/06/11 11:13:29;;;;;;;4.47;2.30;;;;;;;25.67;37.29;98842.94;1762165;81;21090;-83
2021/06/11 11:15:57;;;;;;;6.00;2.80;;;;;;;25.84;36.49;98849.36;1752608;81;21010;-84
2021/06/11 11:18:35;;;;;;;4.72;2.12;;;;;;;25.88;36.44;98844.92;1762038;81;21102;-82
2021/06/11 11:21:25;;;;;;;3.55;2.10;;;;;;;25.98;35.28;98843.15;1756654;81;21528;-84
2021/06/11 11:23:55;;;;;;;3.80;2.00;;;;;;;25.94;34.75;98840.42;1756393;81;21040;-85
2021/06/11 11:26:50;;;;;;;5.60;2.30;;;;;;;25.90;34.45;98856.31;1752103;80;21062;-83
2021/06/11 11:29:20;;;;;;;5.15;1.72;;;;;;;25.95;34.30;98852.74;1755952;81;20991;-84
2021/06/11 11:31:49;;;;;;;6.00;2.15;;;;;;;26.16;33.74;98853.05;1745153;81;21075;-83
2021/06/11 11:34:16;;;;;;;4.90;2.10;;;;;;;26.26;33.85;98857.02;1773447;79;21027;-84
2021/06/11 11:36:43;;;;;;;3.40;1.77;;;;;;;26.52;33.23;98847.41;1753272;79;21050;-84
2021/06/11 11:39:12;;;;;;;6.33;1.70;;;;;;;26.84;31.25;98841.31;1751700;80;21103;-82
2021/06/11 11:41:40;;;;;;;3.05;1.87;;;;;;;27.02;32.42;98838.69;1748413;80;21692;-82